createdAt,value
2022-07-27T00:01:50.594Z,19.88
2022-07-27T00:04:18.360Z,19.88
2022-07-27T00:06:44.822Z,19.82
2022-07-27T00:09:11.811Z,19.85
2022-07-27T00:11:38.510Z,19.81
2022-07-27T00:14:05.052Z,19.81
2022-07-27T00:16:31.691Z,19.74
2022-07-27T00:18:58.138Z,19.66
2022-07-27T00:21:26.571Z,19.62
2022-07-27T00:23:54.351Z,19.67
2022-07-27T00:26:21.126Z,19.49
2022-07-27T00:28:47.857Z,19.44
2022-07-27T00:31:14.600Z,19.41
2022-07-27T00:33:41.237Z,19.39
2022-07-27T00:36:07.959Z,19.37
2022-07-27T00:38:34.409Z,19.45
2022-07-27T00:41:00.883Z,19.50
2022-07-27T00:43:27.408Z,19.47
2022-07-27T00:45:53.853Z,19.44
2022-07-27T00:48:20.330Z,19.27
2022-07-27T00:50:47.262Z,19.20
2022-07-27T00:53:14.323Z,19.32
2022-07-27T00:55:40.854Z,19.28
2022-07-27T00:58:08.711Z,19.19
2022-07-27T01:00:37.273Z,19.26
2022-07-27T01:03:09.269Z,19.32
2022-07-27T01:05:42.548Z,19.30
2022-07-27T01:08:12.373Z,19.34
2022-07-27T01:10:39.934Z,19.30
2022-07-27T01:13:06.325Z,19.26
2022-07-27T01:15:39.755Z,19.19
2022-07-27T01:18:46.745Z,19.19
2022-07-27T01:21:13.156Z,19.21
2022-07-27T01:23:39.652Z,19.26
2022-07-27T01:26:07.702Z,19.20
2022-07-27T01:28:34.122Z,19.16
2022-07-27T01:31:00.818Z,19.13
2022-07-27T01:33:27.218Z,19.12
2022-07-27T01:35:56.447Z,19.09
2022-07-27T01:38:23.060Z,19.11
2022-07-27T01:40:50.969Z,19.09
2022-07-27T01:43:17.631Z,19.11
2022-07-27T01:45:44.186Z,19.09
2022-07-27T01:48:10.670Z,19.06
2022-07-27T01:50:37.228Z,19.10
2022-07-27T01:53:03.984Z,19.03
2022-07-27T01:55:35.770Z,19.01
2022-07-27T01:58:07.206Z,18.96
2022-07-27T02:00:33.969Z,18.95
2022-07-27T02:03:00.524Z,18.91
2022-07-27T02:05:27.066Z,18.99
2022-07-27T02:07:53.500Z,18.95
2022-07-27T02:10:19.941Z,18.99
2022-07-27T02:12:46.336Z,18.98
2022-07-27T02:15:15.850Z,19.03
2022-07-27T02:17:44.741Z,19.06
2022-07-27T02:20:12.774Z,19.01
2022-07-27T02:22:39.196Z,18.89
2022-07-27T02:25:06.920Z,18.88
2022-07-27T02:27:33.303Z,18.98
2022-07-27T02:30:00.135Z,18.95
2022-07-27T02:32:27.396Z,18.97
2022-07-27T02:34:54.028Z,18.96
2022-07-27T02:37:20.649Z,18.95
2022-07-27T02:39:47.029Z,18.94
2022-07-27T02:42:13.562Z,18.98
2022-07-27T02:44:40.623Z,18.95
2022-07-27T02:47:07.075Z,18.98
2022-07-27T02:49:33.541Z,18.93
2022-07-27T02:51:59.973Z,18.95
2022-07-27T02:54:26.958Z,18.92
2022-07-27T02:56:55.218Z,18.92
2022-07-27T02:59:22.422Z,18.91
2022-07-27T03:01:49.184Z,18.83
2022-07-27T03:04:16.056Z,18.83
2022-07-27T03:06:42.649Z,18.88
2022-07-27T03:09:09.536Z,18.82
2022-07-27T03:11:36.632Z,18.84
2022-07-27T03:14:03.448Z,18.80
2022-07-27T03:16:30.326Z,18.79
2022-07-27T03:18:57.813Z,18.79
2022-07-27T03:21:24.599Z,18.76
2022-07-27T03:23:51.033Z,18.82
2022-07-27T03:26:19.079Z,18.82
2022-07-27T03:28:45.692Z,18.81
2022-07-27T03:31:12.294Z,18.87
2022-07-27T03:33:38.754Z,18.84
2022-07-27T03:36:05.564Z,18.83
2022-07-27T03:38:31.946Z,18.76
2022-07-27T03:40:58.710Z,18.73
2022-07-27T03:43:25.170Z,18.73
2022-07-27T03:45:51.584Z,18.68
2022-07-27T03:48:18.058Z,18.62
2022-07-27T03:50:44.524Z,18.65
2022-07-27T03:53:11.932Z,18.63
2022-07-27T03:55:38.365Z,18.67
2022-07-27T03:58:04.777Z,18.73
2022-07-27T04:00:31.241Z,18.73
2022-07-27T04:02:57.712Z,18.68
2022-07-27T04:05:24.223Z,18.71
2022-07-27T04:07:55.822Z,18.66
2022-07-27T04:10:23.071Z,18.67
2022-07-27T04:12:51.463Z,18.59
2022-07-27T04:15:18.916Z,18.50
2022-07-27T04:17:54.018Z,18.50
2022-07-27T04:20:23.799Z,18.50
2022-07-27T04:22:50.203Z,18.52
2022-07-27T04:25:16.913Z,18.53
2022-07-27T04:27:43.321Z,18.54
2022-07-27T04:30:10.200Z,18.42
2022-07-27T04:32:36.747Z,18.43
2022-07-27T04:35:03.314Z,18.42
2022-07-27T04:37:30.169Z,18.53
2022-07-27T04:39:57.792Z,18.46
2022-07-27T04:42:24.673Z,18.56
2022-07-27T04:44:51.045Z,18.58
2022-07-27T04:47:17.555Z,18.61
2022-07-27T04:49:43.925Z,18.49
2022-07-27T04:52:10.547Z,18.60
2022-07-27T04:54:36.911Z,18.61
2022-07-27T04:57:03.438Z,18.58
2022-07-27T04:59:29.896Z,18.52
2022-07-27T05:01:56.502Z,18.59
2022-07-27T05:04:23.010Z,18.52
2022-07-27T05:06:49.492Z,18.55
2022-07-27T05:09:15.851Z,18.59
2022-07-27T05:11:51.573Z,18.56
2022-07-27T05:14:19.745Z,18.61
2022-07-27T05:16:47.833Z,18.61
2022-07-27T05:19:14.889Z,18.60
2022-07-27T05:21:41.694Z,18.51
2022-07-27T05:24:08.126Z,18.48
2022-07-27T05:26:34.584Z,18.52
2022-07-27T05:29:00.990Z,18.56
2022-07-27T05:31:27.634Z,18.52
2022-07-27T05:33:58.127Z,18.46
2022-07-27T05:36:24.922Z,18.48
2022-07-27T05:38:51.308Z,18.58
2022-07-27T05:41:23.795Z,18.42
2022-07-27T05:43:50.661Z,18.52
2022-07-27T05:46:17.362Z,18.53
2022-07-27T05:48:43.960Z,18.64
2022-07-27T05:51:10.483Z,18.65
2022-07-27T05:53:37.924Z,18.68
2022-07-27T05:56:04.893Z,18.69
2022-07-27T05:58:31.272Z,18.65
2022-07-27T06:00:57.964Z,18.62
2022-07-27T06:03:24.617Z,18.64
2022-07-27T06:05:51.682Z,18.71
2022-07-27T06:08:18.090Z,18.61
2022-07-27T06:10:44.472Z,18.62
2022-07-27T06:13:14.029Z,18.71
2022-07-27T06:15:40.563Z,18.79
2022-07-27T06:18:08.962Z,18.82
2022-07-27T06:20:35.667Z,18.85
2022-07-27T06:23:07.926Z,18.86
2022-07-27T06:25:35.687Z,18.84
2022-07-27T06:28:03.760Z,18.89
2022-07-27T06:30:30.166Z,18.90
2022-07-27T06:32:57.771Z,18.90
2022-07-27T06:35:25.538Z,18.93
2022-07-27T06:37:52.813Z,18.93
2022-07-27T06:40:19.449Z,18.92
2022-07-27T06:42:45.953Z,18.92
2022-07-27T06:45:12.669Z,18.94
2022-07-27T06:47:49.349Z,19.01
2022-07-27T06:50:18.159Z,19.08
2022-07-27T06:52:44.621Z,19.03
2022-07-27T06:55:11.539Z,19.08
2022-07-27T06:57:38.220Z,19.21
2022-07-27T07:00:06.818Z,19.26
2022-07-27T07:02:33.406Z,19.33
2022-07-27T07:05:00.061Z,19.40
2022-07-27T07:07:26.570Z,19.45
2022-07-27T07:09:52.973Z,19.46
2022-07-27T07:12:19.847Z,19.36
2022-07-27T07:14:46.428Z,19.38
2022-07-27T07:17:13.392Z,19.35
2022-07-27T07:19:40.335Z,19.25
2022-07-27T07:22:07.105Z,19.22
2022-07-27T07:24:33.664Z,19.21
2022-07-27T07:27:00.105Z,19.18
2022-07-27T07:29:26.520Z,19.09
2022-07-27T07:31:53.017Z,19.16
2022-07-27T07:34:19.401Z,19.13
2022-07-27T07:36:47.712Z,19.18
2022-07-27T07:39:14.758Z,19.07
2022-07-27T07:41:41.344Z,19.11
2022-07-27T07:44:09.005Z,19.15
2022-07-27T07:46:36.781Z,19.14
2022-07-27T07:49:04.351Z,19.17
2022-07-27T07:51:31.992Z,19.21
2022-07-27T07:53:58.417Z,19.34
2022-07-27T07:56:24.812Z,19.56
2022-07-27T07:58:51.257Z,19.76
2022-07-27T08:01:17.719Z,19.86
2022-07-27T08:03:50.334Z,19.90
2022-07-27T08:06:17.417Z,20.03
2022-07-27T08:08:43.801Z,20.17
2022-07-27T08:11:10.461Z,20.27
2022-07-27T08:13:37.031Z,20.17
2022-07-27T08:16:03.716Z,20.18
2022-07-27T08:18:30.175Z,20.19
2022-07-27T08:20:56.598Z,20.24
2022-07-27T08:23:23.070Z,20.21
2022-07-27T08:25:49.563Z,20.21
2022-07-27T08:28:15.979Z,20.26
2022-07-27T08:30:42.554Z,20.26
2022-07-27T08:33:09.981Z,20.38
2022-07-27T08:35:36.456Z,20.39
2022-07-27T08:38:05.769Z,20.55
2022-07-27T08:40:40.311Z,20.65
2022-07-27T08:43:09.093Z,20.67
2022-07-27T08:45:37.115Z,20.65
2022-07-27T08:48:04.153Z,20.71
2022-07-27T08:50:30.989Z,20.76
2022-07-27T08:53:03.862Z,20.96
2022-07-27T08:55:36.298Z,21.01
2022-07-27T08:58:04.213Z,21.06
2022-07-27T09:00:31.956Z,20.80
2022-07-27T09:02:59.727Z,20.67
2022-07-27T09:05:37.268Z,20.81
2022-07-27T09:08:12.673Z,21.06
2022-07-27T09:10:39.237Z,21.19
2022-07-27T09:13:23.816Z,21.45
2022-07-27T09:16:19.601Z,21.57
2022-07-27T09:18:47.518Z,21.57
2022-07-27T09:21:17.035Z,21.68
2022-07-27T09:23:49.452Z,21.67
2022-07-27T09:26:35.147Z,21.69
2022-07-27T09:29:10.566Z,21.54
2022-07-27T09:31:43.148Z,21.32
2022-07-27T09:34:10.822Z,21.30
2022-07-27T09:36:54.900Z,21.45
2022-07-27T09:39:23.160Z,21.44
2022-07-27T09:41:50.777Z,21.64
2022-07-27T09:44:34.702Z,21.86
2022-07-27T09:47:20.596Z,22.08
2022-07-27T09:49:47.050Z,22.19
2022-07-27T09:52:24.148Z,22.28
2022-07-27T09:54:50.972Z,22.44
2022-07-27T09:57:18.472Z,22.59
2022-07-27T09:59:45.783Z,22.40
2022-07-27T10:02:16.889Z,22.18
2022-07-27T10:04:44.037Z,22.16
2022-07-27T10:07:13.643Z,22.14
2022-07-27T10:09:41.136Z,22.33
2022-07-27T10:12:08.234Z,22.44
2022-07-27T10:14:35.150Z,22.57
2022-07-27T10:17:02.471Z,22.68
2022-07-27T10:19:44.102Z,22.79
2022-07-27T10:22:10.560Z,22.95
2022-07-27T10:24:37.259Z,22.96
2022-07-27T10:27:30.888Z,22.99
2022-07-27T10:29:57.904Z,22.73
2022-07-27T10:32:31.512Z,22.60
2022-07-27T10:34:58.735Z,22.49
2022-07-27T10:37:30.985Z,22.54
2022-07-27T10:40:18.295Z,22.83
2022-07-27T10:42:51.937Z,23.25
2022-07-27T10:45:20.534Z,23.50
2022-07-27T10:47:52.322Z,23.24
2022-07-27T10:50:25.233Z,23.33
2022-07-27T10:53:04.016Z,23.28
2022-07-27T10:55:30.661Z,23.12
2022-07-27T10:58:03.298Z,23.40
2022-07-27T11:00:53.669Z,23.79
2022-07-27T11:03:32.945Z,23.79
2022-07-27T11:09:46.429Z,23.45
2022-07-27T11:11:47.658Z,23.27
2022-07-27T11:14:15.181Z,23.07
2022-07-27T11:16:55.279Z,22.77
2022-07-27T11:19:23.815Z,23.18
2022-07-27T11:21:52.326Z,23.52
2022-07-27T11:24:19.109Z,23.41
2022-07-27T11:29:16.480Z,22.99
2022-07-27T11:31:59.713Z,22.82
2022-07-27T11:34:35.564Z,22.69
2022-07-27T11:37:11.759Z,22.65
2022-07-27T11:42:24.672Z,23.42
2022-07-27T11:44:52.618Z,23.67
2022-07-27T11:47:20.673Z,23.79
2022-07-27T11:49:47.439Z,24.08
2022-07-27T11:52:17.098Z,24.10
2022-07-27T11:54:43.476Z,24.33
2022-07-27T11:57:12.500Z,24.11
2022-07-27T11:59:41.190Z,23.93
2022-07-27T12:02:19.754Z,23.69
2022-07-27T12:04:49.258Z,23.44
2022-07-27T12:07:19.711Z,23.31
2022-07-27T12:09:48.910Z,23.41
2022-07-27T12:12:26.268Z,23.19
2022-07-27T12:14:56.701Z,23.09
2022-07-27T12:17:36.300Z,22.74
2022-07-27T12:20:12.086Z,22.62
2022-07-27T12:22:43.939Z,22.58
2022-07-27T12:25:29.556Z,22.56
2022-07-27T12:28:00.896Z,22.64
2022-07-27T12:30:31.916Z,22.92
2022-07-27T12:32:59.355Z,22.91
2022-07-27T12:35:32.808Z,22.76
2022-07-27T12:38:07.450Z,22.71
2022-07-27T12:40:42.389Z,22.90
2022-07-27T12:43:09.775Z,23.33
2022-07-27T12:45:38.219Z,23.65
2022-07-27T12:48:38.492Z,23.99
2022-07-27T12:51:06.939Z,23.86
2022-07-27T12:53:34.851Z,23.65
2022-07-27T12:56:04.585Z,23.32
2022-07-27T12:58:31.272Z,22.92
2022-07-27T13:00:59.034Z,22.82
2022-07-27T13:03:25.528Z,22.73
2022-07-27T13:05:51.915Z,22.68
2022-07-27T13:08:18.303Z,22.65
2022-07-27T13:10:44.856Z,22.63
2022-07-27T13:13:11.580Z,22.64
2022-07-27T13:15:38.329Z,22.51
2022-07-27T13:18:04.803Z,22.74
2022-07-27T13:20:31.515Z,23.05
2022-07-27T13:22:58.034Z,23.20
2022-07-27T13:25:24.517Z,23.11
2022-07-27T13:27:51.023Z,23.03
2022-07-27T13:30:18.752Z,22.90
2022-07-27T13:32:48.528Z,22.78
2022-07-27T13:35:16.508Z,22.73
2022-07-27T13:37:44.146Z,22.67
2022-07-27T13:40:10.945Z,22.59
2022-07-27T13:42:37.748Z,22.56
2022-07-27T13:45:11.506Z,22.58
2022-07-27T13:47:39.778Z,22.59
2022-07-27T13:50:15.084Z,22.69
2022-07-27T13:52:44.927Z,22.75
2022-07-27T13:55:12.886Z,22.89
2022-07-27T13:57:39.346Z,22.94
2022-07-27T14:00:06.623Z,22.87
2022-07-27T14:02:33.132Z,22.72
2022-07-27T14:05:00.616Z,22.65
2022-07-27T14:07:29.053Z,22.63
2022-07-27T14:10:14.356Z,22.62
2022-07-27T14:12:40.977Z,22.60
2022-07-27T14:15:07.944Z,22.57
2022-07-27T14:17:34.767Z,22.58
2022-07-27T14:20:01.170Z,22.58
2022-07-27T14:22:27.605Z,22.56
2022-07-27T14:24:54.001Z,22.49
2022-07-27T14:27:20.451Z,22.44
2022-07-27T14:29:46.831Z,22.33
2022-07-27T14:32:13.284Z,22.34
2022-07-27T14:34:39.681Z,22.23
2022-07-27T14:37:06.335Z,22.30
2022-07-27T14:39:32.723Z,22.35
2022-07-27T14:41:59.192Z,22.34
2022-07-27T14:44:27.983Z,22.37
2022-07-27T14:46:54.453Z,22.25
2022-07-27T14:49:22.876Z,22.31
2022-07-27T14:51:49.839Z,22.35
2022-07-27T14:54:16.958Z,22.42
2022-07-27T14:56:43.621Z,22.50
2022-07-27T14:59:10.519Z,22.50
2022-07-27T15:01:37.454Z,22.54
2022-07-27T15:04:04.268Z,22.50
2022-07-27T15:06:35.257Z,22.37
2022-07-27T15:09:05.012Z,22.35
2022-07-27T15:11:31.577Z,22.29
2022-07-27T15:13:58.318Z,22.16
2022-07-27T15:16:24.939Z,22.13
2022-07-27T15:18:51.375Z,22.12
2022-07-27T15:21:18.347Z,22.10
2022-07-27T15:23:44.951Z,22.13
2022-07-27T15:26:12.837Z,22.08
2022-07-27T15:28:40.696Z,22.13
2022-07-27T15:31:07.219Z,22.14
2022-07-27T15:33:33.634Z,22.15
2022-07-27T15:36:00.029Z,22.14
2022-07-27T15:38:26.455Z,22.16
2022-07-27T15:40:53.035Z,22.19
2022-07-27T15:43:19.899Z,22.19
2022-07-27T15:45:50.727Z,22.19
2022-07-27T15:48:19.523Z,22.17
2022-07-27T15:50:48.646Z,22.14
2022-07-27T15:53:16.820Z,22.13
2022-07-27T15:55:44.177Z,22.06
2022-07-27T15:58:11.056Z,22.04
2022-07-27T16:00:41.153Z,22.04
2022-07-27T16:03:09.854Z,21.99
2022-07-27T16:05:36.599Z,21.95
2022-07-27T16:08:03.674Z,21.99
2022-07-27T16:10:30.132Z,22.00
2022-07-27T16:12:57.061Z,21.97
2022-07-27T16:15:43.512Z,21.98
2022-07-27T16:18:10.279Z,21.89
2022-07-27T16:20:37.132Z,21.87
2022-07-27T16:23:18.818Z,21.85
2022-07-27T16:26:07.580Z,21.87
2022-07-27T16:28:38.945Z,21.73
2022-07-27T16:31:07.934Z,21.77
2022-07-27T16:33:34.651Z,21.77
2022-07-27T16:36:01.056Z,21.79
2022-07-27T16:38:28.055Z,21.82
2022-07-27T16:40:54.666Z,21.81
2022-07-27T16:43:21.057Z,21.78
2022-07-27T16:45:47.441Z,21.80
2022-07-27T16:48:13.855Z,21.80
2022-07-27T16:50:40.427Z,21.77
2022-07-27T16:53:07.181Z,21.73
2022-07-27T16:55:33.599Z,21.76
2022-07-27T16:57:59.975Z,21.76
2022-07-27T17:00:26.483Z,21.74
2022-07-27T17:02:53.068Z,21.71
2022-07-27T17:05:19.492Z,21.67
2022-07-27T17:07:45.843Z,21.67
2022-07-27T17:10:12.241Z,21.70
2022-07-27T17:12:53.226Z,21.63
2022-07-27T17:15:20.689Z,21.68
2022-07-27T17:17:47.190Z,21.64
2022-07-27T17:20:13.588Z,21.57
2022-07-27T17:22:39.979Z,21.54
2022-07-27T17:25:07.050Z,21.53
2022-07-27T17:27:34.848Z,21.52
2022-07-27T17:30:03.337Z,21.54
2022-07-27T17:32:29.756Z,21.54
2022-07-27T17:34:56.171Z,21.51
2022-07-27T17:37:22.558Z,21.49
2022-07-27T17:39:49.075Z,21.41
2022-07-27T17:42:15.468Z,21.41
2022-07-27T17:44:41.848Z,21.44
2022-07-27T17:47:08.285Z,21.41
2022-07-27T17:49:34.733Z,21.41
2022-07-27T17:52:02.344Z,21.40
2022-07-27T17:54:28.743Z,21.34
2022-07-27T17:56:55.110Z,21.36
2022-07-27T17:59:38.364Z,21.34
2022-07-27T18:02:05.317Z,21.30
2022-07-27T18:04:37.106Z,21.32
2022-07-27T18:07:05.469Z,21.26
2022-07-27T18:09:31.911Z,21.25
2022-07-27T18:11:58.289Z,21.25
2022-07-27T18:14:24.833Z,21.25
2022-07-27T18:16:51.225Z,21.20
2022-07-27T18:19:17.607Z,21.18
2022-07-27T18:21:44.065Z,21.11
2022-07-27T18:24:10.640Z,21.12
2022-07-27T18:26:37.255Z,21.08
2022-07-27T18:29:05.221Z,21.10
2022-07-27T18:31:31.699Z,21.08
2022-07-27T18:33:58.927Z,21.01
2022-07-27T18:36:25.666Z,21.00
2022-07-27T18:38:52.315Z,20.96
2022-07-27T18:41:19.053Z,20.94
2022-07-27T18:43:51.101Z,20.88
2022-07-27T18:46:19.415Z,20.84
2022-07-27T18:48:46.178Z,20.81
2022-07-27T18:51:13.610Z,20.71
2022-07-27T18:53:40.689Z,20.69
2022-07-27T18:56:07.139Z,20.66
2022-07-27T18:58:33.634Z,20.68
2022-07-27T19:01:00.225Z,20.67
2022-07-27T19:03:27.928Z,20.61
2022-07-27T19:05:55.944Z,20.56
2022-07-27T19:08:23.902Z,20.47
2022-07-27T19:10:51.251Z,20.44
2022-07-27T19:13:17.669Z,20.42
2022-07-27T19:15:45.188Z,20.38
2022-07-27T19:18:12.269Z,20.36
2022-07-27T19:20:38.820Z,20.31
2022-07-27T19:23:06.037Z,20.21
2022-07-27T19:25:33.728Z,20.15
2022-07-27T19:28:00.873Z,20.17
2022-07-27T19:30:27.816Z,20.21
2022-07-27T19:32:54.346Z,20.18
2022-07-27T19:35:20.794Z,20.03
2022-07-27T19:37:47.212Z,20.03
2022-07-27T19:40:42.904Z,19.97
2022-07-27T19:43:00.257Z,19.96
2022-07-27T19:45:26.667Z,20.00
2022-07-27T19:47:53.061Z,19.90
2022-07-27T19:50:19.504Z,19.84
2022-07-27T19:52:45.976Z,19.82
2022-07-27T19:55:12.720Z,19.87
2022-07-27T19:57:39.132Z,19.85
2022-07-27T20:00:08.398Z,19.76
2022-07-27T20:02:34.992Z,19.73
2022-07-27T20:05:01.439Z,19.78
2022-07-27T20:07:28.050Z,19.69
2022-07-27T20:09:54.496Z,19.67
2022-07-27T20:12:21.419Z,19.65
2022-07-27T20:14:47.891Z,19.66
2022-07-27T20:17:14.426Z,19.63
2022-07-27T20:19:40.934Z,19.52
2022-07-27T20:22:07.365Z,19.48
2022-07-27T20:24:34.172Z,19.43
2022-07-27T20:27:00.626Z,19.36
2022-07-27T20:29:29.510Z,19.34
2022-07-27T20:31:58.127Z,19.38
2022-07-27T20:34:25.133Z,19.26
2022-07-27T20:36:51.985Z,19.35
2022-07-27T20:39:18.546Z,19.33
2022-07-27T20:41:45.918Z,19.22
2022-07-27T20:44:12.554Z,19.12
2022-07-27T20:46:38.969Z,19.10
2022-07-27T20:49:05.481Z,19.13
2022-07-27T20:51:31.911Z,19.12
2022-07-27T20:53:58.387Z,19.05
2022-07-27T20:56:24.808Z,19.05
2022-07-27T20:58:51.232Z,18.90
2022-07-27T21:01:17.723Z,18.86
2022-07-27T21:03:44.200Z,18.85
2022-07-27T21:06:11.137Z,18.88
2022-07-27T21:08:40.496Z,18.83
2022-07-27T21:11:09.352Z,18.80
2022-07-27T21:13:35.916Z,18.72
2022-07-27T21:16:02.441Z,18.79
2022-07-27T21:18:28.989Z,18.74
2022-07-27T21:20:55.469Z,18.72
2022-07-27T21:23:41.050Z,18.71
2022-07-27T21:26:07.450Z,18.68
2022-07-27T21:28:33.897Z,18.69
2022-07-27T21:31:00.659Z,18.62
2022-07-27T21:33:27.272Z,18.62
2022-07-27T21:35:53.788Z,18.64
2022-07-27T21:38:20.222Z,18.52
2022-07-27T21:40:46.615Z,18.57
2022-07-27T21:43:13.057Z,18.60
2022-07-27T21:45:39.551Z,18.60
2022-07-27T21:48:14.512Z,18.49
2022-07-27T21:50:40.973Z,18.38
2022-07-27T21:53:07.501Z,18.37
2022-07-27T21:55:34.044Z,18.35
2022-07-27T21:58:00.518Z,18.26
2022-07-27T22:00:29.308Z,18.19
2022-07-27T22:02:56.146Z,18.24
2022-07-27T22:05:22.933Z,18.21
2022-07-27T22:07:50.969Z,18.20
2022-07-27T22:10:17.751Z,18.27
2022-07-27T22:12:44.507Z,18.20
2022-07-27T22:15:11.148Z,18.17
2022-07-27T22:17:49.004Z,18.14
2022-07-27T22:20:18.476Z,18.08
2022-07-27T22:22:45.292Z,17.88
2022-07-27T22:25:11.712Z,17.85
2022-07-27T22:27:38.450Z,17.79
2022-07-27T22:30:05.679Z,17.86
2022-07-27T22:32:33.071Z,17.86
2022-07-27T22:34:59.460Z,17.80
2022-07-27T22:37:26.062Z,17.64
2022-07-27T22:39:52.580Z,17.56
2022-07-27T22:42:19.246Z,17.53
2022-07-27T22:44:45.729Z,17.45
2022-07-27T22:47:12.258Z,17.54
2022-07-27T22:49:38.683Z,17.52
2022-07-27T22:52:05.525Z,17.30
2022-07-27T22:54:34.300Z,17.30
2022-07-27T22:57:00.701Z,17.36
2022-07-27T22:59:27.091Z,17.23
2022-07-27T23:01:53.820Z,17.25
2022-07-27T23:04:20.446Z,17.05
2022-07-27T23:06:47.119Z,17.01
2022-07-27T23:09:13.929Z,16.98
2022-07-27T23:11:40.383Z,16.98
2022-07-27T23:14:07.421Z,16.94
2022-07-27T23:16:34.588Z,16.97
2022-07-27T23:19:01.023Z,16.91
2022-07-27T23:21:27.480Z,16.93
2022-07-27T23:23:54.372Z,17.00
2022-07-27T23:26:22.984Z,16.89
2022-07-27T23:28:53.543Z,16.83
2022-07-27T23:31:20.050Z,16.90
2022-07-27T23:33:46.972Z,16.99
2022-07-27T23:36:13.579Z,16.95
2022-07-27T23:38:40.080Z,16.85
2022-07-27T23:41:06.473Z,16.83
2022-07-27T23:43:32.858Z,16.78
2022-07-27T23:45:59.405Z,16.94
2022-07-27T23:48:25.872Z,16.68
2022-07-27T23:50:55.471Z,16.73
2022-07-27T23:53:21.988Z,16.54
2022-07-27T23:55:48.448Z,16.51
2022-07-27T23:58:14.855Z,16.42
